createdAt,value
2023-02-19T00:01:42.233Z,14.00
2023-02-19T00:04:14.900Z,14.13
2023-02-19T00:06:43.073Z,13.03
2023-02-19T00:09:11.721Z,12.73
2023-02-19T00:11:40.081Z,14.53
2023-02-19T00:14:08.991Z,13.47
2023-02-19T00:16:39.098Z,15.53
2023-02-19T00:19:08.848Z,14.27
2023-02-19T00:21:35.941Z,13.73
2023-02-19T00:24:04.954Z,14.10
2023-02-19T00:26:32.560Z,13.73
2023-02-19T00:29:02.248Z,14.60
2023-02-19T00:31:32.976Z,12.57
2023-02-19T00:34:02.906Z,13.03
2023-02-19T00:36:31.161Z,13.83
2023-02-19T00:38:58.341Z,14.10
2023-02-19T00:41:25.973Z,13.23
2023-02-19T00:44:01.285Z,14.00
2023-02-19T00:46:37.036Z,14.53
2023-02-19T00:49:05.827Z,13.97
2023-02-19T00:51:35.792Z,14.60
2023-02-19T00:54:02.837Z,16.07
2023-02-19T00:56:29.837Z,16.20
2023-02-19T00:58:56.959Z,15.43
2023-02-19T01:01:24.015Z,15.90
2023-02-19T01:03:51.231Z,18.10
2023-02-19T01:06:23.179Z,17.37
2023-02-19T01:08:51.096Z,16.80
2023-02-19T01:11:18.678Z,17.30
2023-02-19T01:13:45.625Z,15.57
2023-02-19T01:16:19.525Z,15.40
2023-02-19T01:18:47.901Z,16.47
2023-02-19T01:21:21.224Z,16.27
2023-02-19T01:23:49.324Z,19.17
2023-02-19T01:26:20.700Z,20.27
2023-02-19T01:28:48.434Z,18.20
2023-02-19T01:31:18.947Z,19.07
2023-02-19T01:33:51.062Z,19.23
2023-02-19T01:36:19.030Z,21.93
2023-02-19T01:38:46.490Z,19.90
2023-02-19T01:41:21.180Z,20.07
2023-02-19T01:44:05.026Z,20.73
2023-02-19T01:46:34.787Z,16.57
2023-02-19T01:49:16.266Z,19.10
2023-02-19T01:51:53.034Z,16.53
2023-02-19T01:54:22.821Z,16.70
2023-02-19T01:56:50.961Z,15.60
2023-02-19T01:59:18.945Z,15.10
2023-02-19T02:01:46.150Z,17.63
2023-02-19T02:04:14.727Z,16.37
2023-02-19T02:06:56.458Z,15.23
2023-02-19T02:09:46.969Z,16.53
2023-02-19T02:12:14.243Z,16.13
2023-02-19T02:14:45.464Z,16.20
2023-02-19T02:17:49.526Z,16.47
2023-02-19T02:20:51.539Z,17.00
2023-02-19T02:23:21.335Z,17.30
2023-02-19T02:25:57.710Z,16.90
2023-02-19T02:28:36.434Z,16.83
2023-02-19T02:31:10.402Z,17.37
2023-02-19T02:33:57.873Z,16.53
2023-02-19T02:36:37.605Z,17.53
2023-02-19T02:39:08.209Z,15.77
2023-02-19T02:41:35.017Z,16.63
2023-02-19T02:44:01.833Z,16.27
2023-02-19T02:46:35.061Z,16.93
2023-02-19T02:49:22.169Z,17.77
2023-02-19T02:51:53.451Z,16.27
2023-02-19T02:54:48.100Z,15.77
2023-02-19T02:57:16.808Z,16.13
2023-02-19T02:59:45.048Z,16.03
2023-02-19T03:02:18.868Z,15.80
2023-02-19T03:05:16.272Z,15.00
2023-02-19T03:08:12.365Z,14.73
2023-02-19T03:11:21.569Z,13.83
2023-02-19T03:14:12.130Z,13.63
2023-02-19T03:17:01.603Z,14.27
2023-02-19T03:19:31.951Z,14.00
2023-02-19T03:22:14.373Z,13.57
2023-02-19T03:25:31.100Z,12.57
2023-02-19T03:28:00.905Z,11.70
2023-02-19T03:30:34.912Z,11.83
2023-02-19T03:33:13.421Z,12.50
2023-02-19T03:36:12.685Z,11.27
2023-02-19T03:38:53.730Z,11.03
2023-02-19T03:41:27.468Z,11.63
2023-02-19T03:44:16.849Z,11.30
2023-02-19T03:47:05.590Z,10.83
2023-02-19T03:49:42.313Z,10.60
2023-02-19T03:52:16.576Z,10.90
2023-02-19T03:54:55.324Z,10.90
2023-02-19T03:57:45.880Z,11.63
2023-02-19T04:00:34.466Z,11.30
2023-02-19T04:03:20.064Z,11.37
2023-02-19T04:05:58.504Z,11.10
2023-02-19T04:08:26.243Z,11.03
2023-02-19T04:10:55.003Z,10.50
2023-02-19T04:13:27.298Z,10.57
2023-02-19T04:15:57.421Z,10.37
2023-02-19T04:18:32.097Z,10.30
2023-02-19T04:21:00.820Z,11.17
2023-02-19T04:23:36.314Z,11.60
2023-02-19T04:26:04.609Z,10.03
2023-02-19T04:28:31.816Z,10.50
2023-02-19T04:30:58.694Z,9.77
2023-02-19T04:33:26.774Z,10.43
2023-02-19T04:35:53.618Z,11.10
2023-02-19T04:38:20.671Z,11.17
2023-02-19T04:40:47.798Z,11.27
2023-02-19T04:43:14.851Z,11.13
2023-02-19T04:45:41.767Z,11.20
2023-02-19T04:48:09.282Z,11.07
2023-02-19T04:50:39.587Z,11.03
2023-02-19T04:53:07.197Z,10.80
2023-02-19T04:55:38.213Z,10.53
2023-02-19T04:58:05.389Z,10.20
2023-02-19T05:00:34.402Z,10.63
2023-02-19T05:03:01.772Z,10.60
2023-02-19T05:05:28.632Z,12.40
2023-02-19T05:07:55.410Z,11.03
2023-02-19T05:10:22.252Z,10.47
2023-02-19T05:12:49.180Z,10.87
2023-02-19T05:15:16.148Z,11.67
2023-02-19T05:17:42.995Z,10.60
2023-02-19T05:20:10.142Z,9.83
2023-02-19T05:22:37.082Z,10.90
2023-02-19T05:25:04.518Z,10.03
2023-02-19T05:27:31.929Z,10.20
2023-02-19T05:29:58.669Z,10.50
2023-02-19T05:32:25.579Z,9.80
2023-02-19T05:34:52.648Z,10.60
2023-02-19T05:37:19.829Z,9.57
2023-02-19T05:39:46.828Z,9.97
2023-02-19T05:42:15.336Z,10.17
2023-02-19T05:44:42.978Z,10.60
2023-02-19T05:47:10.044Z,10.47
2023-02-19T05:49:36.830Z,10.80
2023-02-19T05:52:04.450Z,9.07
2023-02-19T05:54:32.219Z,11.47
2023-02-19T05:56:59.119Z,10.87
2023-02-19T05:59:26.719Z,10.37
2023-02-19T06:01:55.176Z,10.50
2023-02-19T06:04:22.493Z,10.13
2023-02-19T06:06:49.656Z,11.90
2023-02-19T06:09:16.731Z,9.87
2023-02-19T06:11:44.086Z,9.10
2023-02-19T06:14:14.117Z,12.37
2023-02-19T06:16:41.128Z,10.60
2023-02-19T06:19:07.987Z,10.97
2023-02-19T06:21:34.915Z,10.73
2023-02-19T06:24:06.882Z,11.33
2023-02-19T06:26:34.079Z,9.23
2023-02-19T06:29:00.944Z,9.33
2023-02-19T06:31:27.917Z,8.90
2023-02-19T06:33:55.425Z,9.57
2023-02-19T06:36:22.895Z,9.13
2023-02-19T06:38:50.228Z,9.80
2023-02-19T06:41:17.769Z,8.73
2023-02-19T06:43:44.677Z,9.40
2023-02-19T06:46:13.128Z,9.60
2023-02-19T06:48:41.700Z,8.60
2023-02-19T06:51:14.058Z,8.40
2023-02-19T06:53:41.181Z,9.13
2023-02-19T06:56:30.224Z,8.73
2023-02-19T06:58:59.880Z,9.37
2023-02-19T07:01:28.337Z,8.57
2023-02-19T07:03:55.221Z,8.67
2023-02-19T07:06:23.728Z,8.33
2023-02-19T07:08:51.678Z,8.53
2023-02-19T07:11:18.842Z,8.77
2023-02-19T07:13:45.955Z,8.37
2023-02-19T07:16:13.061Z,9.73
2023-02-19T07:18:40.697Z,9.20
2023-02-19T07:21:08.920Z,9.80
2023-02-19T07:23:36.363Z,9.20
2023-02-19T07:26:03.756Z,9.30
2023-02-19T07:28:30.560Z,9.27
2023-02-19T07:31:01.526Z,9.23
2023-02-19T07:33:28.500Z,10.17
2023-02-19T07:35:55.304Z,9.70
2023-02-19T07:38:23.805Z,9.93
2023-02-19T07:40:51.235Z,11.43
2023-02-19T07:43:18.420Z,10.53
2023-02-19T07:45:45.727Z,10.07
2023-02-19T07:48:12.747Z,9.13
2023-02-19T07:50:39.684Z,9.37
2023-02-19T07:53:06.654Z,11.10
2023-02-19T07:55:34.281Z,8.33
2023-02-19T07:58:01.176Z,11.13
2023-02-19T08:00:28.080Z,9.83
2023-02-19T08:03:00.888Z,8.97
2023-02-19T08:05:36.892Z,9.63
2023-02-19T08:08:06.728Z,9.60
2023-02-19T08:10:52.000Z,10.47
2023-02-19T08:13:19.411Z,11.07
2023-02-19T08:15:46.919Z,10.07
2023-02-19T08:18:15.256Z,10.87
2023-02-19T08:20:42.892Z,9.93
2023-02-19T08:23:10.575Z,11.40
2023-02-19T08:25:40.554Z,10.23
2023-02-19T08:28:08.792Z,9.47
2023-02-19T08:30:38.176Z,9.67
2023-02-19T08:33:07.330Z,11.17
2023-02-19T08:35:37.743Z,12.90
2023-02-19T08:38:06.417Z,10.03
2023-02-19T08:40:33.923Z,9.47
2023-02-19T08:43:10.932Z,8.10
2023-02-19T08:45:40.244Z,9.73
2023-02-19T08:48:07.976Z,8.77
2023-02-19T08:50:35.766Z,9.53
2023-02-19T08:53:03.564Z,8.67
2023-02-19T08:55:30.458Z,10.03
2023-02-19T08:57:57.347Z,8.33
2023-02-19T09:00:24.394Z,7.47
2023-02-19T09:02:51.275Z,8.93
2023-02-19T09:05:18.154Z,9.00
2023-02-19T09:07:44.907Z,8.73
2023-02-19T09:10:13.738Z,9.53
2023-02-19T09:12:41.033Z,9.27
2023-02-19T09:15:08.174Z,8.63
2023-02-19T09:17:34.942Z,8.33
2023-02-19T09:20:01.975Z,8.47
2023-02-19T09:22:29.331Z,9.50
2023-02-19T09:24:56.128Z,8.67
2023-02-19T09:27:23.158Z,7.87
2023-02-19T09:29:49.986Z,7.30
2023-02-19T09:32:19.082Z,7.57
2023-02-19T09:34:46.157Z,7.07
2023-02-19T09:37:15.051Z,8.07
2023-02-19T09:39:41.834Z,7.97
2023-02-19T09:42:32.071Z,8.27
2023-02-19T09:45:00.961Z,7.40
2023-02-19T09:47:32.821Z,6.67
2023-02-19T09:50:10.463Z,7.60
2023-02-19T09:52:42.526Z,7.60
2023-02-19T09:55:18.786Z,8.20
2023-02-19T09:57:46.934Z,7.20
2023-02-19T10:00:19.949Z,6.77
2023-02-19T10:02:46.922Z,5.43
2023-02-19T10:05:15.819Z,6.20
2023-02-19T10:07:49.198Z,5.97
2023-02-19T10:10:15.918Z,5.37
2023-02-19T10:12:52.226Z,5.67
2023-02-19T10:15:44.229Z,6.33
2023-02-19T10:18:11.384Z,5.07
2023-02-19T10:20:38.884Z,4.87
2023-02-19T10:23:07.855Z,5.30
2023-02-19T10:25:35.584Z,4.43
2023-02-19T10:28:03.494Z,4.87
2023-02-19T10:30:33.232Z,4.43
2023-02-19T10:33:09.918Z,4.80
2023-02-19T10:35:51.234Z,5.47
2023-02-19T10:38:20.477Z,5.23
2023-02-19T10:40:48.429Z,5.27
2023-02-19T10:43:31.263Z,5.20
2023-02-19T10:46:00.041Z,5.03
2023-02-19T10:48:32.501Z,4.80
2023-02-19T10:51:09.444Z,4.90
2023-02-19T10:53:42.858Z,4.57
2023-02-19T10:56:14.519Z,4.70
2023-02-19T10:58:44.893Z,4.70
2023-02-19T11:01:20.861Z,4.30
2023-02-19T11:03:50.333Z,4.80
2023-02-19T11:06:20.876Z,4.87
2023-02-19T11:08:59.740Z,2.50
2023-02-19T11:11:31.264Z,3.20
2023-02-19T11:13:59.704Z,2.27
2023-02-19T11:16:48.265Z,1.97
2023-02-19T11:19:24.676Z,1.63
2023-02-19T11:21:51.899Z,1.90
2023-02-19T11:24:37.558Z,1.50
2023-02-19T11:27:07.251Z,2.40
2023-02-19T11:29:37.091Z,2.83
2023-02-19T11:32:22.342Z,3.37
2023-02-19T11:34:49.230Z,3.90
2023-02-19T11:37:18.507Z,2.60
2023-02-19T11:39:50.862Z,3.20
2023-02-19T11:42:37.010Z,3.00
2023-02-19T11:45:18.669Z,2.70
2023-02-19T11:47:57.602Z,2.40
2023-02-19T11:50:45.364Z,2.33
2023-02-19T11:53:15.168Z,4.40
2023-02-19T11:56:12.842Z,2.63
2023-02-19T11:58:51.442Z,3.23
2023-02-19T12:01:52.765Z,3.67
2023-02-19T12:04:47.444Z,3.73
2023-02-19T12:07:48.081Z,4.43
2023-02-19T12:10:25.022Z,5.30
2023-02-19T12:13:12.257Z,4.37
2023-02-19T12:16:15.549Z,4.30
2023-02-19T12:19:00.406Z,2.50
2023-02-19T12:21:55.155Z,2.00
2023-02-19T12:24:56.666Z,2.20
2023-02-19T12:27:50.331Z,1.17
2023-02-19T12:30:53.446Z,1.27
2023-02-19T12:33:23.129Z,1.00
2023-02-19T12:36:18.963Z,1.30
2023-02-19T12:38:59.554Z,1.50
2023-02-19T12:41:48.868Z,1.50
2023-02-19T12:44:24.904Z,1.70
2023-02-19T12:47:03.872Z,1.70
2023-02-19T12:49:50.728Z,2.43
2023-02-19T12:52:25.940Z,1.57
2023-02-19T12:55:01.453Z,1.83
2023-02-19T12:57:35.092Z,2.13
2023-02-19T13:00:27.996Z,3.37
2023-02-19T13:03:20.982Z,3.10
2023-02-19T13:06:40.170Z,2.87
2023-02-19T13:09:14.878Z,2.90
2023-02-19T13:11:58.769Z,2.67
2023-02-19T13:14:38.402Z,3.13
2023-02-19T13:17:22.488Z,2.60
2023-02-19T13:19:52.762Z,3.10
2023-02-19T13:22:56.648Z,3.70
2023-02-19T13:25:28.468Z,2.97
2023-02-19T13:27:55.277Z,3.63
2023-02-19T13:30:54.032Z,3.27
2023-02-19T13:33:36.394Z,3.37
2023-02-19T13:36:22.500Z,2.83
2023-02-19T13:38:50.391Z,3.63
2023-02-19T13:41:29.939Z,3.90
2023-02-19T13:44:00.734Z,3.73
2023-02-19T13:46:36.800Z,4.03
2023-02-19T13:49:28.679Z,4.47
2023-02-19T13:52:21.413Z,4.40
2023-02-19T13:54:48.436Z,4.50
2023-02-19T13:57:24.385Z,4.80
2023-02-19T13:59:54.002Z,5.27
2023-02-19T14:02:21.197Z,5.67
2023-02-19T14:05:03.450Z,5.10
2023-02-19T14:07:47.072Z,6.07
2023-02-19T14:10:51.815Z,6.40
2023-02-19T14:13:55.823Z,6.60
2023-02-19T14:16:29.774Z,6.60
2023-02-19T14:18:56.688Z,7.60
2023-02-19T14:21:27.939Z,6.43
2023-02-19T14:23:58.804Z,6.30
2023-02-19T14:26:27.534Z,7.47
2023-02-19T14:28:54.895Z,6.93
2023-02-19T14:31:29.388Z,7.90
2023-02-19T14:34:00.190Z,7.67
2023-02-19T14:36:48.885Z,8.80
2023-02-19T14:39:37.858Z,6.97
2023-02-19T14:42:20.819Z,8.17
2023-02-19T14:44:52.371Z,7.50
2023-02-19T14:47:22.548Z,7.57
2023-02-19T14:50:01.065Z,8.07
2023-02-19T14:52:45.730Z,7.87
2023-02-19T14:55:32.758Z,8.10
2023-02-19T14:58:21.022Z,8.97
2023-02-19T15:00:48.021Z,9.00
2023-02-19T15:03:38.860Z,9.57
2023-02-19T15:06:07.387Z,10.00
2023-02-19T15:08:59.227Z,9.83
2023-02-19T15:11:29.539Z,10.77
2023-02-19T15:13:59.529Z,9.80
2023-02-19T15:16:31.306Z,11.50
2023-02-19T15:18:59.942Z,11.87
2023-02-19T15:21:32.439Z,14.37
2023-02-19T15:24:05.345Z,12.03
2023-02-19T15:26:36.821Z,11.60
2023-02-19T15:29:15.927Z,12.43
2023-02-19T15:32:02.286Z,11.30
2023-02-19T15:34:31.395Z,11.07
2023-02-19T15:37:07.856Z,10.17
2023-02-19T15:39:46.485Z,10.47
2023-02-19T15:42:35.093Z,12.10
2023-02-19T15:45:22.247Z,13.37
2023-02-19T15:47:58.842Z,10.93
2023-02-19T15:50:31.980Z,10.97
2023-02-19T15:53:07.156Z,9.83
2023-02-19T15:55:46.356Z,11.47
2023-02-19T15:58:46.775Z,10.03
2023-02-19T16:01:20.317Z,8.53
2023-02-19T16:03:47.701Z,8.53
2023-02-19T16:06:17.150Z,7.90
2023-02-19T16:08:46.334Z,7.67
2023-02-19T16:11:40.367Z,7.50
2023-02-19T16:14:29.184Z,5.87
2023-02-19T16:17:00.385Z,5.47
2023-02-19T16:19:35.551Z,4.37
2023-02-19T16:22:02.486Z,3.97
2023-02-19T16:24:36.888Z,3.70
2023-02-19T16:27:05.058Z,3.57
2023-02-19T16:29:33.132Z,3.10
2023-02-19T16:32:02.928Z,2.83
2023-02-19T16:34:46.750Z,3.00
2023-02-19T16:37:37.546Z,2.63
2023-02-19T16:40:07.336Z,2.70
2023-02-19T16:42:49.868Z,2.90
2023-02-19T16:45:17.884Z,2.70
2023-02-19T16:47:48.276Z,2.53
2023-02-19T16:50:21.796Z,2.90
2023-02-19T16:52:56.571Z,3.60
2023-02-19T16:55:23.984Z,3.50
2023-02-19T16:57:51.282Z,2.80
2023-02-19T17:00:27.136Z,3.30
2023-02-19T17:02:58.021Z,3.87
2023-02-19T17:05:28.326Z,4.10
2023-02-19T17:07:55.149Z,4.40
2023-02-19T17:10:27.998Z,3.90
2023-02-19T17:12:55.696Z,5.20
2023-02-19T17:15:23.663Z,4.67
2023-02-19T17:17:50.556Z,5.03
2023-02-19T17:20:17.356Z,5.23
2023-02-19T17:22:44.627Z,5.10
2023-02-19T17:25:11.538Z,5.53
2023-02-19T17:27:38.625Z,7.73
2023-02-19T17:30:25.571Z,5.83
2023-02-19T17:32:52.455Z,5.50
2023-02-19T17:35:19.308Z,5.40
2023-02-19T17:37:46.259Z,6.33
2023-02-19T17:40:32.790Z,6.30
2023-02-19T17:43:00.297Z,7.20
2023-02-19T17:45:27.070Z,6.60
2023-02-19T17:47:53.875Z,7.13
2023-02-19T17:50:26.817Z,7.33
2023-02-19T17:52:53.718Z,8.00
2023-02-19T17:55:20.659Z,8.43
2023-02-19T17:57:49.079Z,8.37
2023-02-19T18:00:19.134Z,8.87
2023-02-19T18:02:45.997Z,8.40
2023-02-19T18:05:12.995Z,8.43
2023-02-19T18:07:39.845Z,8.73
2023-02-19T18:10:07.700Z,8.77
2023-02-19T18:12:34.533Z,9.63
2023-02-19T18:15:01.472Z,9.57
2023-02-19T18:17:28.359Z,10.53
2023-02-19T18:19:55.225Z,9.77
2023-02-19T18:22:22.024Z,10.07
2023-02-19T18:24:50.580Z,9.60
2023-02-19T18:27:19.209Z,9.90
2023-02-19T18:29:51.743Z,8.73
2023-02-19T18:32:19.822Z,8.10
2023-02-19T18:34:54.367Z,9.03
2023-02-19T18:37:22.722Z,8.27
2023-02-19T18:39:49.593Z,7.27
2023-02-19T18:42:16.679Z,8.23
2023-02-19T18:44:43.863Z,7.70
2023-02-19T18:47:11.565Z,6.93
2023-02-19T18:49:38.773Z,6.90
2023-02-19T18:52:06.295Z,7.43
2023-02-19T18:54:33.385Z,7.03
2023-02-19T18:57:01.947Z,6.10
2023-02-19T18:59:28.781Z,6.80
2023-02-19T19:01:55.859Z,6.17
2023-02-19T19:04:22.700Z,6.70
2023-02-19T19:06:49.614Z,6.60
2023-02-19T19:09:16.519Z,7.10
2023-02-19T19:11:44.460Z,6.00
2023-02-19T19:14:11.280Z,6.57
2023-02-19T19:16:38.118Z,6.70
2023-02-19T19:19:04.900Z,6.00
2023-02-19T19:21:31.739Z,5.70
2023-02-19T19:23:58.698Z,5.53
2023-02-19T19:26:25.700Z,5.77
2023-02-19T19:28:52.547Z,5.90
2023-02-19T19:31:20.975Z,6.80
2023-02-19T19:33:49.032Z,6.20
2023-02-19T19:36:20.650Z,6.87
2023-02-19T19:38:48.386Z,6.43
2023-02-19T19:41:16.944Z,5.83
2023-02-19T19:43:43.812Z,5.40
2023-02-19T19:46:10.898Z,6.03
2023-02-19T19:48:40.697Z,5.67
2023-02-19T19:51:08.204Z,5.87
2023-02-19T19:53:35.166Z,5.60
2023-02-19T19:56:01.980Z,5.83
2023-02-19T19:58:28.756Z,6.87
2023-02-19T20:00:56.171Z,6.60
2023-02-19T20:03:22.969Z,6.30
2023-02-19T20:05:52.720Z,6.27
2023-02-19T20:08:19.646Z,8.40
2023-02-19T20:10:46.690Z,6.50
2023-02-19T20:13:17.606Z,6.60
2023-02-19T20:15:44.671Z,6.47
2023-02-19T20:18:11.961Z,6.83
2023-02-19T20:20:38.764Z,7.53
2023-02-19T20:23:05.603Z,7.80
2023-02-19T20:25:32.392Z,6.73
2023-02-19T20:27:59.477Z,7.00
2023-02-19T20:30:26.364Z,6.37
2023-02-19T20:32:53.758Z,6.33
2023-02-19T20:35:21.151Z,7.17
2023-02-19T20:37:49.474Z,5.10
2023-02-19T20:40:18.325Z,5.00
2023-02-19T20:42:45.247Z,4.87
2023-02-19T20:45:12.229Z,4.73
2023-02-19T20:47:40.282Z,3.77
2023-02-19T20:50:07.793Z,4.37
2023-02-19T20:52:34.624Z,3.37
2023-02-19T20:55:01.499Z,3.23
2023-02-19T20:57:28.281Z,3.67
2023-02-19T20:59:55.177Z,4.07
2023-02-19T21:02:27.807Z,3.43
2023-02-19T21:04:56.300Z,3.10
2023-02-19T21:07:24.610Z,3.30
2023-02-19T21:09:52.201Z,3.20
2023-02-19T21:12:20.762Z,3.27
2023-02-19T21:14:48.034Z,3.47
2023-02-19T21:17:15.174Z,3.77
2023-02-19T21:19:42.027Z,5.20
2023-02-19T21:22:08.875Z,9.37
2023-02-19T21:24:35.775Z,9.27
2023-02-19T21:27:02.545Z,6.63
2023-02-19T21:29:29.435Z,6.93
2023-02-19T21:31:57.756Z,7.90
2023-02-19T21:34:28.237Z,7.03
2023-02-19T21:36:56.381Z,5.30
2023-02-19T21:39:24.751Z,4.33
2023-02-19T21:41:52.012Z,4.00
2023-02-19T21:44:19.457Z,3.73
2023-02-19T21:46:46.637Z,3.20
2023-02-19T21:49:14.073Z,4.27
2023-02-19T21:51:42.200Z,5.50
2023-02-19T21:54:14.095Z,8.30
2023-02-19T21:56:41.315Z,8.00
2023-02-19T21:59:08.816Z,6.30
2023-02-19T22:01:40.217Z,8.10
2023-02-19T22:04:07.923Z,4.17
2023-02-19T22:06:35.599Z,3.80
2023-02-19T22:09:02.849Z,3.40
2023-02-19T22:11:30.191Z,2.97
2023-02-19T22:13:57.431Z,2.63
2023-02-19T22:16:24.825Z,2.90
2023-02-19T22:18:54.133Z,3.00
2023-02-19T22:21:22.539Z,3.13
2023-02-19T22:23:50.736Z,3.13
2023-02-19T22:26:31.847Z,3.13
2023-02-19T22:28:59.631Z,2.97
2023-02-19T22:31:28.360Z,2.73
2023-02-19T22:33:57.514Z,2.53
2023-02-19T22:36:26.761Z,2.20
2023-02-19T22:38:54.414Z,3.50
2023-02-19T22:41:21.727Z,2.93
2023-02-19T22:43:49.212Z,2.37
2023-02-19T22:46:21.997Z,3.17
2023-02-19T22:48:49.425Z,3.53
2023-02-19T22:51:21.022Z,4.10
2023-02-19T22:53:49.740Z,4.27
2023-02-19T22:56:17.705Z,3.63
2023-02-19T22:58:44.970Z,3.73
2023-02-19T23:01:13.092Z,4.30
2023-02-19T23:03:47.168Z,3.60
2023-02-19T23:06:14.890Z,4.03
2023-02-19T23:08:43.095Z,3.83
2023-02-19T23:11:12.715Z,3.33
2023-02-19T23:13:43.200Z,4.10
2023-02-19T23:16:10.980Z,3.73
2023-02-19T23:18:38.846Z,3.27
2023-02-19T23:21:06.012Z,3.33
2023-02-19T23:23:33.351Z,3.57
2023-02-19T23:26:00.730Z,3.67
2023-02-19T23:28:27.855Z,3.30
2023-02-19T23:30:55.224Z,3.70
2023-02-19T23:33:22.487Z,3.97
2023-02-19T23:35:49.656Z,4.10
2023-02-19T23:38:16.855Z,9.50
2023-02-19T23:40:45.287Z,7.27
2023-02-19T23:43:12.543Z,5.10
2023-02-19T23:45:39.794Z,5.40
2023-02-19T23:48:07.139Z,4.03
2023-02-19T23:50:34.316Z,4.70
2023-02-19T23:53:01.727Z,4.57
2023-02-19T23:55:28.922Z,4.80
2023-02-19T23:57:56.169Z,4.37
